Time;durP1;ratioP1;P1;durP2;ratioP2;P2;SDS_P1;SDS_P2;PMS_P1;PMS_P2;Temp;Humidity;BMP_temperature;BMP_pressure;BME280_temperature;BME280_humidity;BME280_pressure;Samples;Min_cycle;Max_cycle;Signal;HPM_P1;HPM_P2
2023/09/29 04:30:51;;;;;;;1.67;1.58;;;;;;;;;;5149192;27;20426;-82
2023/09/29 04:33:18;;;;;;;0.77;0.70;;;;;;;;;;5152341;27;20428;-82
2023/09/29 04:35:44;;;;;;;0.75;0.70;;;;;;;;;;5149108;27;20455;-84
2023/09/29 04:38:09;;;;;;;2.92;1.27;;;;;;;;;;5149196;27;20023;-83
2023/09/29 04:40:34;;;;;;;0.65;0.55;;;;;;;;;;5148871;27;20027;-83
2023/09/29 04:43:02;;;;;;;1.58;0.95;;;;;;;;;;5149509;27;20092;-82
2023/09/29 04:45:27;;;;;;;10.13;1.27;;;;;;;;;;5149131;27;20023;-83
2023/09/29 04:47:54;;;;;;;3.58;0.80;;;;;;;;;;5150305;27;20394;-83
2023/09/29 04:50:20;;;;;;;7.35;1.58;;;;;;;;;;5142175;27;20027;-82
2023/09/29 04:52:45;;;;;;;13.85;0.82;;;;;;;;;;5148768;27;20069;-83
2023/09/29 04:55:11;;;;;;;15.13;1.33;;;;;;;;;;5138417;27;20026;-83
2023/09/29 04:57:36;;;;;;;2.20;0.85;;;;;;;;;;5149927;27;20056;-83
2023/09/29 05:00:03;;;;;;;1.95;1.02;;;;;;;;;;5134082;27;20132;-82
2023/09/29 05:02:30;;;;;;;4.45;0.75;;;;;;;;;;5148791;27;20090;-82
2023/09/29 05:04:56;;;;;;;12.70;0.95;;;;;;;;;;5148238;27;20050;-79
2023/09/29 05:07:21;;;;;;;4.07;1.55;;;;;;;;;;5141952;27;20026;-80
2023/09/29 05:09:47;;;;;;;1.50;0.60;;;;;;;;;;5147943;27;20022;-80
2023/09/29 05:12:13;;;;;;;5.30;0.60;;;;;;;;;;5150493;27;20076;-81
2023/09/29 05:14:38;;;;;;;1.58;1.30;;;;;;;;;;5147045;27;20031;-80
2023/09/29 05:17:03;;;;;;;0.95;0.35;;;;;;;;;;5146346;27;20429;-80
2023/09/29 05:19:29;;;;;;;0.88;0.50;;;;;;;;;;5137838;27;20455;-80
2023/09/29 05:21:54;;;;;;;1.55;1.08;;;;;;;;;;5146398;27;20034;-80
2023/09/29 05:24:20;;;;;;;0.60;0.60;;;;;;;;;;5140345;27;20152;-79
2023/09/29 05:26:45;;;;;;;1.42;1.33;;;;;;;;;;5147566;27;20458;-81
2023/09/29 05:29:11;;;;;;;1.63;0.65;;;;;;;;;;5146084;27;20566;-81
2023/09/29 05:31:36;;;;;;;0.75;0.57;;;;;;;;;;5130089;27;20027;-81
2023/09/29 05:34:02;;;;;;;0.55;0.52;;;;;;;;;;5143181;27;20083;-81
2023/09/29 05:36:29;;;;;;;1.45;1.02;;;;;;;;;;5147990;27;20134;-81
2023/09/29 05:38:55;;;;;;;11.45;0.60;;;;;;;;;;5139634;27;20027;-80
2023/09/29 05:41:20;;;;;;;0.55;0.55;;;;;;;;;;5138298;27;20053;-80
2023/09/29 05:43:45;;;;;;;0.70;0.55;;;;;;;;;;5133088;27;20027;-81
2023/09/29 05:46:11;;;;;;;0.90;0.60;;;;;;;;;;5119199;27;20071;-80
2023/09/29 05:48:37;;;;;;;1.90;0.70;;;;;;;;;;5137790;27;20565;-81
2023/09/29 05:51:03;;;;;;;1.33;0.77;;;;;;;;;;5134791;27;20027;-80
2023/09/29 05:53:28;;;;;;;1.10;0.80;;;;;;;;;;5133679;27;20114;-80
2023/09/29 05:55:53;;;;;;;0.50;0.50;;;;;;;;;;5117825;27;20031;-81
2023/09/29 05:58:20;;;;;;;0.88;0.80;;;;;;;;;;5128911;27;20033;-80
2023/09/29 06:00:45;;;;;;;2.13;1.45;;;;;;;;;;5131661;27;20099;-80
2023/09/29 06:03:11;;;;;;;2.50;1.33;;;;;;;;;;5130413;27;20059;-80
2023/09/29 06:05:37;;;;;;;2.97;1.13;;;;;;;;;;5112396;27;20104;-80
2023/09/29 06:08:03;;;;;;;0.60;0.60;;;;;;;;;;5115511;27;20158;-80
2023/09/29 06:10:28;;;;;;;1.65;0.73;;;;;;;;;;5117166;27;20088;-80
2023/09/29 06:12:54;;;;;;;1.73;0.73;;;;;;;;;;5129878;27;20034;-80
2023/09/29 06:15:19;;;;;;;9.75;2.40;;;;;;;;;;5131544;27;20363;-80
2023/09/29 06:17:45;;;;;;;4.20;2.05;;;;;;;;;;5132520;27;20026;-81
2023/09/29 06:20:11;;;;;;;4.85;2.50;;;;;;;;;;5118450;27;20092;-80
2023/09/29 06:22:36;;;;;;;1.33;1.00;;;;;;;;;;5131624;27;20469;-80
2023/09/29 06:25:02;;;;;;;2.42;0.93;;;;;;;;;;5119517;27;20042;-80
2023/09/29 06:27:27;;;;;;;2.13;1.55;;;;;;;;;;5135959;27;20024;-80
2023/09/29 06:29:53;;;;;;;3.25;1.92;;;;;;;;;;5133409;27;20501;-81
2023/09/29 06:32:19;;;;;;;6.03;1.13;;;;;;;;;;5133473;27;20034;-81
2023/09/29 06:34:45;;;;;;;7.43;0.88;;;;;;;;;;5134086;27;20110;-81
2023/09/29 06:37:11;;;;;;;1.33;1.17;;;;;;;;;;5132561;27;20436;-81
2023/09/29 06:39:36;;;;;;;2.90;1.05;;;;;;;;;;5132917;27;20015;-82
2023/09/29 06:42:03;;;;;;;0.50;0.50;;;;;;;;;;5131091;27;20102;-82
2023/09/29 06:44:29;;;;;;;0.98;0.82;;;;;;;;;;5132662;27;20475;-81
2023/09/29 06:46:55;;;;;;;0.70;0.60;;;;;;;;;;5131156;27;20055;-81
2023/09/29 06:49:20;;;;;;;0.93;0.60;;;;;;;;;;5142973;27;20073;-81
2023/09/29 06:51:46;;;;;;;1.27;1.00;;;;;;;;;;5119093;27;20034;-82
2023/09/29 06:54:11;;;;;;;1.83;1.23;;;;;;;;;;5130681;27;20482;-82
2023/09/29 06:56:37;;;;;;;3.75;0.93;;;;;;;;;;5133154;27;20036;-82
2023/09/29 06:59:02;;;;;;;0.77;0.65;;;;;;;;;;5114368;27;20037;-81
2023/09/29 07:01:28;;;;;;;8.00;0.93;;;;;;;;;;5132669;27;20019;-82
2023/09/29 07:03:54;;;;;;;0.75;0.50;;;;;;;;;;5131396;27;20084;-81
2023/09/29 07:06:23;;;;;;;1.08;0.82;;;;;;;;;;5132680;27;20035;-82
2023/09/29 07:08:49;;;;;;;8.07;0.50;;;;;;;;;;5116361;27;20031;-82
2023/09/29 07:11:14;;;;;;;2.33;1.20;;;;;;;;;;5120907;27;20099;-83
2023/09/29 07:13:40;;;;;;;0.52;0.40;;;;;;;;;;5113918;27;20475;-82
2023/09/29 07:16:05;;;;;;;0.82;0.77;;;;;;;;;;5132584;27;20115;-82
2023/09/29 07:18:31;;;;;;;1.88;1.05;;;;;;;;;;5132484;27;20041;-82
2023/09/29 07:20:59;;;;;;;2.63;0.93;;;;;;;;;;5131785;27;20019;-82
2023/09/29 07:23:25;;;;;;;0.93;0.80;;;;;;;;;;5132775;27;20767;-81
2023/09/29 07:25:52;;;;;;;1.05;0.95;;;;;;;;;;5116777;27;20030;-82
2023/09/29 07:28:18;;;;;;;1.52;0.82;;;;;;;;;;5123119;27;20071;-81
2023/09/29 07:30:45;;;;;;;4.68;0.80;;;;;;;;;;5132041;27;20047;-82
2023/09/29 07:33:10;;;;;;;1.05;0.75;;;;;;;;;;5120001;27;20470;-82
2023/09/29 07:35:36;;;;;;;0.65;0.60;;;;;;;;;;5126230;27;20028;-82
2023/09/29 07:38:02;;;;;;;1.05;0.70;;;;;;;;;;5132404;27;20047;-80
2023/09/29 07:40:28;;;;;;;3.47;1.08;;;;;;;;;;5132108;27;20027;-81
2023/09/29 07:42:53;;;;;;;8.27;1.25;;;;;;;;;;5131219;27;20027;-82
2023/09/29 07:45:20;;;;;;;0.75;0.70;;;;;;;;;;5132169;27;20029;-81
2023/09/29 07:47:45;;;;;;;0.68;0.50;;;;;;;;;;5131257;27;20480;-82
2023/09/29 07:50:11;;;;;;;2.17;0.65;;;;;;;;;;5130625;27;20102;-81
2023/09/29 07:52:40;;;;;;;3.40;0.90;;;;;;;;;;5131726;27;20027;-82
2023/09/29 07:55:09;;;;;;;0.82;0.82;;;;;;;;;;5131930;27;20051;-81
2023/09/29 07:57:35;;;;;;;5.07;0.80;;;;;;;;;;5132098;27;20072;-82
2023/09/29 08:00:01;;;;;;;1.45;0.65;;;;;;;;;;5131751;27;20424;-80
2023/09/29 08:02:27;;;;;;;1.42;0.73;;;;;;;;;;5130951;27;20026;-81
2023/09/29 08:04:52;;;;;;;1.02;0.63;;;;;;;;;;5130591;27;20038;-81
2023/09/29 08:07:19;;;;;;;2.10;0.95;;;;;;;;;;5128260;27;20390;-82
2023/09/29 08:09:45;;;;;;;2.08;0.82;;;;;;;;;;5117385;27;20122;-81
2023/09/29 08:12:11;;;;;;;0.45;0.40;;;;;;;;;;5131487;27;20079;-82
2023/09/29 08:14:36;;;;;;;0.82;0.50;;;;;;;;;;5131782;27;20031;-82
2023/09/29 08:17:02;;;;;;;7.90;1.73;;;;;;;;;;5131806;27;20022;-82
2023/09/29 08:19:28;;;;;;;8.85;2.95;;;;;;;;;;5131594;27;20015;-82
2023/09/29 08:21:54;;;;;;;0.93;0.93;;;;;;;;;;5131898;27;20637;-81
2023/09/29 08:24:19;;;;;;;0.77;0.70;;;;;;;;;;5131452;27;20039;-82
2023/09/29 08:26:45;;;;;;;0.77;0.52;;;;;;;;;;5123152;28;20031;-82
2023/09/29 08:29:15;;;;;;;0.73;0.65;;;;;;;;;;5129402;28;20039;-81
2023/09/29 08:31:41;;;;;;;0.55;0.55;;;;;;;;;;5116839;27;20019;-80
2023/09/29 08:34:07;;;;;;;3.47;1.30;;;;;;;;;;5131282;28;20111;-82
2023/09/29 08:36:32;;;;;;;0.38;0.38;;;;;;;;;;5131712;28;20023;-79
2023/09/29 08:38:58;;;;;;;0.80;0.63;;;;;;;;;;5131400;27;20058;-81
2023/09/29 08:41:25;;;;;;;0.77;0.70;;;;;;;;;;5123420;28;20031;-82
2023/09/29 08:43:51;;;;;;;1.23;0.68;;;;;;;;;;5116214;27;20043;-80
2023/09/29 08:46:18;;;;;;;1.40;0.70;;;;;;;;;;5113268;27;20062;-81
2023/09/29 08:48:46;;;;;;;3.17;0.95;;;;;;;;;;5126657;28;20023;-82
2023/09/29 08:51:13;;;;;;;1.15;1.00;;;;;;;;;;5129460;28;20061;-82
2023/09/29 08:53:41;;;;;;;1.45;0.80;;;;;;;;;;5118890;28;20114;-82
2023/09/29 08:56:11;;;;;;;0.90;0.90;;;;;;;;;;5131587;28;20019;-80
2023/09/29 08:58:37;;;;;;;0.82;0.50;;;;;;;;;;5128475;28;20031;-80
2023/09/29 09:01:03;;;;;;;0.73;0.60;;;;;;;;;;5130270;28;20026;-79
2023/09/29 09:03:29;;;;;;;0.47;0.47;;;;;;;;;;5131282;27;20027;-80
2023/09/29 09:05:55;;;;;;;2.00;0.90;;;;;;;;;;5130894;28;20023;-80
2023/09/29 09:08:23;;;;;;;1.48;0.73;;;;;;;;;;5131211;28;20466;-82
2023/09/29 09:10:49;;;;;;;0.60;0.43;;;;;;;;;;5122121;28;20123;-80
2023/09/29 09:13:20;;;;;;;1.00;0.52;;;;;;;;;;5131102;28;20102;-80
2023/09/29 09:15:58;;;;;;;0.90;0.40;;;;;;;;;;5130913;27;20027;-80
2023/09/29 09:18:29;;;;;;;1.90;0.88;;;;;;;;;;5134602;27;20019;-80
2023/09/29 09:20:55;;;;;;;0.30;0.30;;;;;;;;;;5135085;27;20376;-80
2023/09/29 09:23:21;;;;;;;2.42;0.90;;;;;;;;;;5122465;27;20470;-80
2023/09/29 09:25:47;;;;;;;0.80;0.55;;;;;;;;;;5133119;27;20038;-80
2023/09/29 09:28:17;;;;;;;1.98;0.80;;;;;;;;;;5122949;27;20344;-82
2023/09/29 09:30:43;;;;;;;0.77;0.73;;;;;;;;;;5134722;27;20404;-80
2023/09/29 09:33:17;;;;;;;1.23;0.98;;;;;;;;;;5134971;27;20071;-80
2023/09/29 09:35:43;;;;;;;0.45;0.45;;;;;;;;;;5134466;27;20027;-80
2023/09/29 09:38:08;;;;;;;1.55;0.93;;;;;;;;;;5134706;27;20026;-81
2023/09/29 09:40:34;;;;;;;1.10;0.52;;;;;;;;;;5134335;27;20110;-79
2023/09/29 09:43:04;;;;;;;0.40;0.40;;;;;;;;;;5133569;27;20103;-80
2023/09/29 09:45:42;;;;;;;1.13;0.80;;;;;;;;;;5122854;27;20386;-82
2023/09/29 09:48:10;;;;;;;3.10;1.55;;;;;;;;;;5134440;27;20091;-80
2023/09/29 09:50:36;;;;;;;1.25;0.65;;;;;;;;;;5134172;27;20019;-80
2023/09/29 09:53:07;;;;;;;0.85;0.52;;;;;;;;;;5134691;27;20072;-82
2023/09/29 09:55:39;;;;;;;1.55;0.95;;;;;;;;;;5126441;27;20034;-82
2023/09/29 09:58:10;;;;;;;2.78;1.00;;;;;;;;;;5130595;27;20101;-79
2023/09/29 10:00:39;;;;;;;1.42;0.93;;;;;;;;;;5127956;27;20023;-81
2023/09/29 10:03:11;;;;;;;1.48;0.60;;;;;;;;;;5124247;27;20030;-82
2023/09/29 10:05:40;;;;;;;1.33;0.85;;;;;;;;;;5134121;27;20063;-80
2023/09/29 10:08:07;;;;;;;8.18;1.17;;;;;;;;;;5133734;27;20042;-83
2023/09/29 10:10:39;;;;;;;1.05;0.73;;;;;;;;;;5136439;27;20019;-82
2023/09/29 10:13:11;;;;;;;0.70;0.70;;;;;;;;;;5134120;27;20043;-81
2023/09/29 10:15:39;;;;;;;1.95;1.20;;;;;;;;;;5132479;27;20039;-82
2023/09/29 10:18:17;;;;;;;3.85;0.68;;;;;;;;;;5134166;27;20041;-82
2023/09/29 10:20:43;;;;;;;0.70;0.70;;;;;;;;;;5129073;27;20360;-80
2023/09/29 10:23:13;;;;;;;1.60;1.02;;;;;;;;;;5134056;27;20110;-83
2023/09/29 10:25:41;;;;;;;2.20;1.17;;;;;;;;;;5130720;27;20025;-80
2023/09/29 10:28:07;;;;;;;1.35;0.77;;;;;;;;;;5131981;27;20028;-77
2023/09/29 10:30:39;;;;;;;1.08;0.82;;;;;;;;;;5131991;27;20563;-79
2023/09/29 10:33:12;;;;;;;2.13;0.85;;;;;;;;;;5131219;27;20051;-79
2023/09/29 10:35:45;;;;;;;2.25;1.20;;;;;;;;;;5133861;27;20499;-80
2023/09/29 10:38:23;;;;;;;2.08;1.17;;;;;;;;;;5133163;27;20466;-80
2023/09/29 10:40:49;;;;;;;1.33;0.77;;;;;;;;;;5133047;27;20482;-76
2023/09/29 10:43:18;;;;;;;0.57;0.57;;;;;;;;;;5132852;27;20423;-77
2023/09/29 10:45:44;;;;;;;2.40;1.43;;;;;;;;;;5126487;27;20027;-78
2023/09/29 10:48:11;;;;;;;1.13;0.85;;;;;;;;;;5133302;27;20298;-77
2023/09/29 10:50:43;;;;;;;2.03;1.20;;;;;;;;;;5133417;27;20019;-77
2023/09/29 10:53:09;;;;;;;2.78;1.80;;;;;;;;;;5132042;27;20043;-78
2023/09/29 10:55:57;;;;;;;2.30;1.10;;;;;;;;;;5132017;27;20027;-77
2023/09/29 10:58:22;;;;;;;2.88;0.90;;;;;;;;;;5130734;27;20031;-77
2023/09/29 11:00:50;;;;;;;1.15;0.80;;;;;;;;;;5133379;27;20019;-77
2023/09/29 11:03:17;;;;;;;0.80;0.80;;;;;;;;;;5133396;27;20038;-78
2023/09/29 11:05:53;;;;;;;2.78;1.95;;;;;;;;;;5117675;27;20038;-77
2023/09/29 11:08:20;;;;;;;1.65;0.98;;;;;;;;;;5132810;27;20050;-78
2023/09/29 11:11:06;;;;;;;6.53;1.08;;;;;;;;;;5133213;27;20475;-78
2023/09/29 11:13:32;;;;;;;1.70;1.40;;;;;;;;;;5131958;27;20493;-78
2023/09/29 11:15:59;;;;;;;1.92;1.15;;;;;;;;;;5132651;27;20027;-77
2023/09/29 11:18:29;;;;;;;3.78;1.20;;;;;;;;;;5132583;27;20034;-79
2023/09/29 11:20:58;;;;;;;3.55;1.92;;;;;;;;;;5132378;27;20383;-80
2023/09/29 11:23:24;;;;;;;3.20;1.88;;;;;;;;;;5127934;27;20422;-76
2023/09/29 11:25:59;;;;;;;5.97;0.90;;;;;;;;;;5132498;27;20031;-79
2023/09/29 11:28:28;;;;;;;1.73;1.15;;;;;;;;;;5123083;27;20063;-77
2023/09/29 11:30:54;;;;;;;3.38;1.30;;;;;;;;;;5132247;27;20471;-78
2023/09/29 11:33:21;;;;;;;1.33;1.23;;;;;;;;;;5132483;27;20023;-77
2023/09/29 11:35:47;;;;;;;1.15;1.00;;;;;;;;;;5132164;27;20118;-79
2023/09/29 11:38:19;;;;;;;4.90;1.92;;;;;;;;;;5132194;27;20030;-79
2023/09/29 11:40:55;;;;;;;0.80;0.80;;;;;;;;;;5131939;27;20045;-77
2023/09/29 11:43:20;;;;;;;2.00;1.15;;;;;;;;;;5132230;27;20520;-78
2023/09/29 11:45:46;;;;;;;7.20;1.92;;;;;;;;;;5126291;27;20137;-78
2023/09/29 11:48:11;;;;;;;1.35;1.25;;;;;;;;;;5132438;27;20076;-77
2023/09/29 11:50:37;;;;;;;4.15;1.73;;;;;;;;;;5132144;27;20037;-77
2023/09/29 11:53:06;;;;;;;7.40;1.77;;;;;;;;;;5128570;27;20027;-77
2023/09/29 11:55:34;;;;;;;1.83;1.63;;;;;;;;;;5131878;27;20026;-79
2023/09/29 11:58:00;;;;;;;1.20;1.00;;;;;;;;;;5131880;27;20019;-77
2023/09/29 12:00:26;;;;;;;1.58;1.05;;;;;;;;;;5130737;27;20063;-79
2023/09/29 12:02:51;;;;;;;1.90;1.25;;;;;;;;;;5131693;27;20436;-80
2023/09/29 12:05:16;;;;;;;1.50;1.15;;;;;;;;;;5131755;27;20033;-79
2023/09/29 12:07:42;;;;;;;2.00;1.20;;;;;;;;;;5133298;27;20018;-79
2023/09/29 12:10:10;;;;;;;1.92;1.23;;;;;;;;;;5134809;27;20026;-79
2023/09/29 12:12:35;;;;;;;1.67;1.15;;;;;;;;;;5133758;27;20458;-82
2023/09/29 12:15:01;;;;;;;1.17;0.98;;;;;;;;;;5131393;27;20034;-79
2023/09/29 12:17:26;;;;;;;1.02;0.93;;;;;;;;;;5130910;27;20046;-79
2023/09/29 12:19:52;;;;;;;1.70;0.98;;;;;;;;;;5131397;27;20038;-79
2023/09/29 12:22:18;;;;;;;1.35;0.90;;;;;;;;;;5132108;27;20027;-81
2023/09/29 12:24:44;;;;;;;2.22;1.20;;;;;;;;;;5131419;27;20037;-79
2023/09/29 12:27:09;;;;;;;3.25;1.65;;;;;;;;;;5131450;27;20105;-79
2023/09/29 12:29:35;;;;;;;1.50;0.98;;;;;;;;;;5130350;28;20479;-79
2023/09/29 12:32:01;;;;;;;2.13;1.20;;;;;;;;;;5131297;27;20019;-79
2023/09/29 12:34:31;;;;;;;1.20;0.85;;;;;;;;;;5129260;28;20027;-78
2023/09/29 12:36:57;;;;;;;2.05;1.25;;;;;;;;;;5130832;28;20031;-81
2023/09/29 12:39:22;;;;;;;1.40;1.30;;;;;;;;;;5130268;28;20026;-82
2023/09/29 12:41:47;;;;;;;1.02;0.57;;;;;;;;;;5119098;28;20390;-80
2023/09/29 12:44:13;;;;;;;1.00;0.90;;;;;;;;;;5130612;28;20029;-81
2023/09/29 12:46:38;;;;;;;1.55;1.17;;;;;;;;;;5128186;28;20045;-83
2023/09/29 12:49:04;;;;;;;0.80;0.73;;;;;;;;;;5130734;28;20030;-80
2023/09/29 12:51:30;;;;;;;0.63;0.57;;;;;;;;;;5115479;27;20446;-80
2023/09/29 12:53:56;;;;;;;2.13;1.30;;;;;;;;;;5134739;27;20023;-80
2023/09/29 12:56:23;;;;;;;1.30;0.80;;;;;;;;;;5135106;27;20747;-80
2023/09/29 12:58:48;;;;;;;1.60;1.10;;;;;;;;;;5134821;27;20023;-79
2023/09/29 13:01:14;;;;;;;1.20;0.82;;;;;;;;;;5134897;27;20037;-79
2023/09/29 13:03:39;;;;;;;1.20;0.90;;;;;;;;;;5120511;27;20031;-79
2023/09/29 13:06:05;;;;;;;2.72;1.50;;;;;;;;;;5133422;27;20054;-80
2023/09/29 13:08:33;;;;;;;0.73;0.73;;;;;;;;;;5134622;27;20030;-79
2023/09/29 13:10:58;;;;;;;1.65;0.82;;;;;;;;;;5134834;27;20069;-78
2023/09/29 13:13:25;;;;;;;1.50;1.20;;;;;;;;;;5134534;27;20027;-79
2023/09/29 13:15:51;;;;;;;1.67;1.05;;;;;;;;;;5134292;27;20023;-80
2023/09/29 13:18:18;;;;;;;0.70;0.65;;;;;;;;;;5134239;27;20026;-79
2023/09/29 13:20:45;;;;;;;1.13;0.82;;;;;;;;;;5125231;27;20364;-81
2023/09/29 13:23:11;;;;;;;2.10;1.13;;;;;;;;;;5133046;27;20019;-81
2023/09/29 13:25:37;;;;;;;1.58;1.00;;;;;;;;;;5123228;27;20057;-80
2023/09/29 13:28:04;;;;;;;1.40;0.80;;;;;;;;;;5127287;27;20076;-80
2023/09/29 13:30:29;;;;;;;2.05;1.15;;;;;;;;;;5132595;27;20051;-80
2023/09/29 13:32:55;;;;;;;1.20;1.10;;;;;;;;;;5127263;27;20058;-80
2023/09/29 13:35:21;;;;;;;2.30;0.68;;;;;;;;;;5134178;27;20023;-81
2023/09/29 13:37:47;;;;;;;1.27;1.00;;;;;;;;;;5124165;27;20035;-80
2023/09/29 13:40:13;;;;;;;2.00;1.10;;;;;;;;;;5133981;27;20108;-81
2023/09/29 13:42:39;;;;;;;1.27;0.80;;;;;;;;;;5115973;27;20047;-80
2023/09/29 13:45:05;;;;;;;1.50;0.93;;;;;;;;;;5133715;27;20034;-80
2023/09/29 13:47:31;;;;;;;1.70;1.05;;;;;;;;;;5132595;27;20104;-80
2023/09/29 13:49:59;;;;;;;1.08;0.80;;;;;;;;;;5118132;27;20015;-80
2023/09/29 13:52:29;;;;;;;0.65;0.63;;;;;;;;;;5133445;27;20382;-80
2023/09/29 13:54:54;;;;;;;1.02;0.90;;;;;;;;;;5133762;27;20834;-80
2023/09/29 13:57:21;;;;;;;1.20;0.85;;;;;;;;;;5133429;27;20027;-80
2023/09/29 13:59:46;;;;;;;7.05;1.00;;;;;;;;;;5133830;27;20139;-81
2023/09/29 14:02:12;;;;;;;1.38;1.00;;;;;;;;;;5117806;27;20453;-80
2023/09/29 14:04:42;;;;;;;1.17;0.88;;;;;;;;;;5132571;27;20019;-80
2023/09/29 14:07:08;;;;;;;1.50;0.80;;;;;;;;;;5131891;27;20065;-80
2023/09/29 14:09:35;;;;;;;3.58;1.05;;;;;;;;;;5133409;27;20406;-79
2023/09/29 14:12:01;;;;;;;0.88;0.70;;;;;;;;;;5140212;27;20056;-80
2023/09/29 14:14:26;;;;;;;1.35;1.00;;;;;;;;;;5133107;27;20098;-81
2023/09/29 14:16:52;;;;;;;2.47;1.27;;;;;;;;;;5132945;27;20360;-79
2023/09/29 14:19:17;;;;;;;2.08;0.80;;;;;;;;;;5133260;27;20135;-79
2023/09/29 14:21:43;;;;;;;1.65;1.30;;;;;;;;;;5120002;27;20085;-79
2023/09/29 14:24:09;;;;;;;2.05;1.23;;;;;;;;;;5133089;27;20027;-81
2023/09/29 14:26:34;;;;;;;0.73;0.65;;;;;;;;;;5131555;27;20019;-80
2023/09/29 14:28:59;;;;;;;2.15;0.77;;;;;;;;;;5133094;27;20081;-80
2023/09/29 14:31:26;;;;;;;1.90;1.13;;;;;;;;;;5131578;27;20031;-81
2023/09/29 14:33:53;;;;;;;4.20;1.42;;;;;;;;;;5122257;27;20027;-81
2023/09/29 14:36:19;;;;;;;1.48;1.10;;;;;;;;;;5132973;27;20394;-81
2023/09/29 14:38:44;;;;;;;1.55;0.70;;;;;;;;;;5132777;27;20030;-81
2023/09/29 14:41:10;;;;;;;3.38;0.90;;;;;;;;;;5130465;27;20536;-80
2023/09/29 14:43:36;;;;;;;2.13;1.00;;;;;;;;;;5132663;27;20501;-80
2023/09/29 14:46:09;;;;;;;2.58;1.05;;;;;;;;;;5132796;27;20373;-80
2023/09/29 14:48:35;;;;;;;1.90;0.95;;;;;;;;;;5131674;27;20489;-80
2023/09/29 14:51:09;;;;;;;0.85;0.77;;;;;;;;;;5132710;27;20019;-78
2023/09/29 14:53:36;;;;;;;1.02;0.70;;;;;;;;;;5124845;27;20035;-78
2023/09/29 14:56:14;;;;;;;1.42;0.90;;;;;;;;;;5130829;27;20194;-81
2023/09/29 14:58:41;;;;;;;0.82;0.80;;;;;;;;;;5132354;27;20023;-78
2023/09/29 15:01:07;;;;;;;2.40;1.17;;;;;;;;;;5132468;27;20062;-78
2023/09/29 15:03:32;;;;;;;1.15;0.95;;;;;;;;;;5131922;27;20019;-80
2023/09/29 15:06:04;;;;;;;1.10;0.90;;;;;;;;;;5131451;27;20053;-80
2023/09/29 15:08:30;;;;;;;1.05;0.90;;;;;;;;;;5132097;27;20019;-81
2023/09/29 15:10:56;;;;;;;0.70;0.70;;;;;;;;;;5122068;27;20027;-79
2023/09/29 15:13:21;;;;;;;2.78;1.23;;;;;;;;;;5123256;27;20083;-81
2023/09/29 15:15:48;;;;;;;2.15;1.20;;;;;;;;;;5119974;27;20072;-81
2023/09/29 15:18:13;;;;;;;1.13;0.80;;;;;;;;;;5130050;27;20110;-80
2023/09/29 15:20:39;;;;;;;1.27;0.88;;;;;;;;;;5124004;27;20106;-80
2023/09/29 15:23:09;;;;;;;2.15;1.38;;;;;;;;;;5131582;27;20030;-81
2023/09/29 15:25:35;;;;;;;;;;;;;;;;;;5121590;27;20083;-80
2023/09/29 15:28:01;;;;;;;1.10;0.80;;;;;;;;;;5131366;27;20009;-79
2023/09/29 15:30:27;;;;;;;1.02;0.88;;;;;;;;;;5131895;27;20164;-80
2023/09/29 15:32:52;;;;;;;2.88;0.65;;;;;;;;;;5117443;27;20031;-80
2023/09/29 15:35:18;;;;;;;1.63;1.00;;;;;;;;;;5132155;27;20030;-80
2023/09/29 15:37:44;;;;;;;1.77;1.15;;;;;;;;;;5124273;27;20168;-79
2023/09/29 15:40:11;;;;;;;1.90;1.13;;;;;;;;;;5132212;27;20394;-79
2023/09/29 15:42:37;;;;;;;1.92;1.33;;;;;;;;;;5131685;27;20031;-79
2023/09/29 15:45:03;;;;;;;2.78;1.30;;;;;;;;;;5131928;27;20494;-80
2023/09/29 15:47:29;;;;;;;1.67;1.02;;;;;;;;;;5131739;27;20034;-80
2023/09/29 15:49:55;;;;;;;5.43;1.08;;;;;;;;;;5132348;27;20019;-83
2023/09/29 15:52:21;;;;;;;0.70;0.70;;;;;;;;;;5130918;27;20027;-84
2023/09/29 15:54:46;;;;;;;2.92;1.08;;;;;;;;;;5134147;27;20035;-80
2023/09/29 15:57:11;;;;;;;1.58;1.23;;;;;;;;;;5132416;27;20152;-79
